createdAt,value
2018-12-08T00:00:58.405Z,9.40
2018-12-08T00:04:01.730Z,9.50
2018-12-08T00:07:04.998Z,9.50
2018-12-08T00:10:08.318Z,9.50
2018-12-08T00:13:11.553Z,9.40
2018-12-08T00:16:14.710Z,9.30
2018-12-08T00:19:26.045Z,9.20
2018-12-08T00:22:29.194Z,9.20
2018-12-08T00:25:32.974Z,9.10
2018-12-08T00:28:36.194Z,9.10
2018-12-08T00:31:44.454Z,9.10
2018-12-08T00:34:47.607Z,9.00
2018-12-08T00:37:50.814Z,8.90
2018-12-08T00:40:54.078Z,8.90
2018-12-08T00:43:57.438Z,8.70
2018-12-08T00:47:00.586Z,8.60
2018-12-08T00:50:04.101Z,8.60
2018-12-08T00:53:07.294Z,8.50
2018-12-08T00:56:10.570Z,8.50
2018-12-08T00:59:13.784Z,8.50
2018-12-08T01:02:17.014Z,8.40
2018-12-08T01:05:20.250Z,8.30
2018-12-08T01:08:23.514Z,8.30
2018-12-08T01:11:26.666Z,8.20
2018-12-08T01:14:29.899Z,8.10
2018-12-08T01:17:33.058Z,7.90
2018-12-08T01:20:36.598Z,7.90
2018-12-08T01:23:39.750Z,7.80
2018-12-08T01:26:42.974Z,7.60
2018-12-08T01:32:55.008Z,7.30
2018-12-08T01:35:59.174Z,7.30
2018-12-08T01:39:02.733Z,7.10
2018-12-08T01:42:06.998Z,7.10
2018-12-08T01:45:10.293Z,7.00
2018-12-08T01:48:13.506Z,7.00
2018-12-08T01:51:16.702Z,6.90
2018-12-08T01:54:19.897Z,6.90
2018-12-08T01:57:23.098Z,6.80
2018-12-08T02:00:26.290Z,6.70
2018-12-08T02:03:29.482Z,6.60
2018-12-08T02:06:32.686Z,6.50
2018-12-08T02:09:35.874Z,6.50
2018-12-08T02:12:39.165Z,6.50
2018-12-08T02:15:42.362Z,6.40
2018-12-08T02:18:45.558Z,6.40
2018-12-08T02:21:48.762Z,6.30
2018-12-08T02:24:52.049Z,6.20
2018-12-08T02:27:55.251Z,6.20
2018-12-08T02:30:58.441Z,6.10
2018-12-08T02:34:01.643Z,6.10
2018-12-08T02:37:04.832Z,6.00
2018-12-08T02:40:08.749Z,6.00
2018-12-08T02:43:11.954Z,6.10
2018-12-08T02:46:16.546Z,6.00
2018-12-08T02:49:19.873Z,6.00
2018-12-08T02:52:23.069Z,5.80
2018-12-08T02:55:26.257Z,5.80
2018-12-08T02:58:35.917Z,5.70
2018-12-08T03:01:39.111Z,5.70
2018-12-08T03:04:42.297Z,5.70
2018-12-08T03:07:45.497Z,5.80
2018-12-08T03:10:48.795Z,5.90
2018-12-08T03:13:52.082Z,6.00
2018-12-08T03:16:55.385Z,6.00
2018-12-08T03:19:58.588Z,6.10
2018-12-08T03:23:01.781Z,6.20
2018-12-08T03:26:05.066Z,6.20
2018-12-08T03:29:08.279Z,6.30
2018-12-08T03:32:11.575Z,6.40
2018-12-08T03:35:14.613Z,6.30
2018-12-08T03:38:18.877Z,6.30
2018-12-08T03:41:22.076Z,6.30
2018-12-08T03:44:25.266Z,6.30
2018-12-08T03:47:28.470Z,6.30
2018-12-08T03:50:31.660Z,6.20
2018-12-08T03:53:35.369Z,6.20
2018-12-08T03:56:38.563Z,6.20
2018-12-08T03:59:41.873Z,6.20
2018-12-08T04:02:45.115Z,6.20
2018-12-08T04:05:48.259Z,6.20
2018-12-08T04:08:51.550Z,6.30
2018-12-08T04:11:55.302Z,6.30
2018-12-08T04:14:59.478Z,6.30
2018-12-08T04:18:02.670Z,6.30
2018-12-08T04:21:05.865Z,6.20
2018-12-08T04:24:09.080Z,6.20
2018-12-08T04:27:12.253Z,6.30
2018-12-08T04:30:15.447Z,6.40
2018-12-08T04:33:18.650Z,6.30
2018-12-08T04:36:21.838Z,6.30
2018-12-08T04:39:25.053Z,6.10
2018-12-08T04:42:28.224Z,6.10
2018-12-08T04:45:31.426Z,6.00
2018-12-08T04:48:34.619Z,6.00
2018-12-08T04:51:37.815Z,5.90
2018-12-08T04:54:41.010Z,5.90
2018-12-08T04:57:44.202Z,5.90
2018-12-08T05:00:47.404Z,5.80
2018-12-08T05:03:50.607Z,5.90
2018-12-08T05:06:53.893Z,5.80
2018-12-08T05:09:57.105Z,5.80
2018-12-08T05:13:00.282Z,5.70
2018-12-08T05:16:03.477Z,5.60
2018-12-08T05:19:06.270Z,5.60
2018-12-08T05:22:09.458Z,5.50
2018-12-08T05:25:12.653Z,5.50
2018-12-08T05:28:15.854Z,5.40
2018-12-08T05:31:19.034Z,5.20
2018-12-08T05:34:22.238Z,5.30
2018-12-08T05:37:25.434Z,5.30
2018-12-08T05:40:28.637Z,5.50
2018-12-08T05:43:32.349Z,5.50
2018-12-08T05:46:35.529Z,5.60
2018-12-08T05:49:38.729Z,5.70
2018-12-08T05:52:42.027Z,5.70
2018-12-08T05:55:45.322Z,5.80
2018-12-08T05:58:48.514Z,5.80
2018-12-08T06:01:51.717Z,5.70
2018-12-08T06:04:55.012Z,5.80
2018-12-08T06:07:58.802Z,5.80
2018-12-08T06:11:02.022Z,5.80
2018-12-08T06:14:05.241Z,5.80
2018-12-08T06:17:08.401Z,5.80
2018-12-08T06:20:11.750Z,5.70
2018-12-08T06:23:14.899Z,5.60
2018-12-08T06:26:20.839Z,5.40
2018-12-08T06:29:24.154Z,5.40
2018-12-08T06:32:27.494Z,5.20
2018-12-08T06:35:30.649Z,5.20
2018-12-08T06:38:33.882Z,5.10
2018-12-08T06:41:37.038Z,5.10
2018-12-08T06:44:40.590Z,5.00
2018-12-08T06:47:43.845Z,5.00
2018-12-08T06:50:47.062Z,4.90
2018-12-08T06:53:50.225Z,4.90
2018-12-08T06:56:53.598Z,4.80
2018-12-08T06:59:56.753Z,4.90
2018-12-08T07:03:00.051Z,4.80
2018-12-08T07:06:03.214Z,4.70
2018-12-08T07:09:07.110Z,4.70
2018-12-08T07:12:11.342Z,4.80
2018-12-08T07:15:14.589Z,4.80
2018-12-08T07:18:17.734Z,4.80
2018-12-08T07:21:21.893Z,4.80
2018-12-08T07:24:25.046Z,4.80
2018-12-08T07:27:28.590Z,5.00
2018-12-08T07:30:31.745Z,5.10
2018-12-08T07:33:34.973Z,5.20
2018-12-08T07:36:38.133Z,5.30
2018-12-08T07:39:41.677Z,5.40
2018-12-08T07:42:44.829Z,5.40
2018-12-08T07:45:48.055Z,5.50
2018-12-08T07:48:51.315Z,5.60
2018-12-08T07:51:54.904Z,5.60
2018-12-08T07:54:58.118Z,5.60
2018-12-08T07:58:01.455Z,5.70
2018-12-08T08:01:05.640Z,5.70
2018-12-08T08:04:08.978Z,5.60
2018-12-08T08:07:12.130Z,5.70
2018-12-08T08:10:15.353Z,5.70
2018-12-08T08:13:18.521Z,5.70
2018-12-08T08:16:21.861Z,5.70
2018-12-08T08:19:25.118Z,5.70
2018-12-08T08:22:28.342Z,5.70
2018-12-08T08:25:31.506Z,5.80
2018-12-08T08:28:34.770Z,5.80
2018-12-08T08:31:37.898Z,5.90
2018-12-08T08:34:41.130Z,6.00
2018-12-08T08:37:44.290Z,6.00
2018-12-08T08:40:47.550Z,6.00
2018-12-08T08:43:50.768Z,6.00
2018-12-08T08:46:54.039Z,6.10
2018-12-08T08:49:57.178Z,6.20
2018-12-08T08:53:02.481Z,6.20
2018-12-08T08:56:05.638Z,6.30
2018-12-08T08:59:08.846Z,6.40
2018-12-08T09:02:12.025Z,6.40
2018-12-08T09:05:15.573Z,6.40
2018-12-08T09:08:18.736Z,6.30
2018-12-08T09:11:21.957Z,6.30
2018-12-08T09:14:25.114Z,6.20
2018-12-08T09:17:28.486Z,6.30
2018-12-08T09:20:31.585Z,6.30
2018-12-08T09:23:34.939Z,6.40
2018-12-08T09:26:38.102Z,6.60
2018-12-08T09:29:41.442Z,6.80
2018-12-08T09:32:44.595Z,6.90
2018-12-08T09:35:48.021Z,6.90
2018-12-08T09:38:51.274Z,7.00
2018-12-08T09:41:55.209Z,7.00
2018-12-08T09:44:58.399Z,7.10
2018-12-08T09:48:01.622Z,7.20
2018-12-08T09:51:04.770Z,7.20
2018-12-08T09:54:09.038Z,7.10
2018-12-08T09:57:12.206Z,7.10
2018-12-08T10:00:15.397Z,7.10
2018-12-08T10:03:18.694Z,7.00
2018-12-08T10:06:21.889Z,7.10
2018-12-08T10:09:25.102Z,7.00
2018-12-08T10:12:28.282Z,7.00
2018-12-08T10:15:31.541Z,7.10
2018-12-08T10:18:34.782Z,7.20
2018-12-08T10:21:38.041Z,7.50
2018-12-08T10:24:41.269Z,7.50
2018-12-08T10:27:44.599Z,7.50
2018-12-08T10:30:47.757Z,7.60
2018-12-08T10:33:50.954Z,7.90
2018-12-08T10:36:54.008Z,8.00
2018-12-08T10:39:56.946Z,7.80
2018-12-08T10:42:59.878Z,7.70
2018-12-08T10:46:03.230Z,7.80
2018-12-08T10:49:06.422Z,7.70
2018-12-08T10:52:09.455Z,7.60
2018-12-08T10:55:14.573Z,7.70
2018-12-08T10:58:17.526Z,7.70
2018-12-08T11:01:23.942Z,7.80
2018-12-08T11:04:26.913Z,7.80
2018-12-08T11:07:29.982Z,7.80
2018-12-08T11:10:33.216Z,7.70
2018-12-08T11:13:37.322Z,7.90
2018-12-08T11:16:40.417Z,7.70
2018-12-08T11:19:43.419Z,7.70
2018-12-08T11:22:46.582Z,7.70
2018-12-08T11:25:49.778Z,7.90
2018-12-08T11:28:52.970Z,7.90
2018-12-08T11:31:56.269Z,8.40
2018-12-08T11:34:59.493Z,8.40
2018-12-08T11:38:03.090Z,8.10
2018-12-08T11:41:06.623Z,8.40
2018-12-08T11:44:10.107Z,8.80
2018-12-08T11:47:13.246Z,9.00
2018-12-08T11:50:16.566Z,8.50
2018-12-08T11:53:19.862Z,8.10
2018-12-08T11:56:23.058Z,7.80
2018-12-08T11:59:26.233Z,7.60
2018-12-08T12:02:36.006Z,7.50
2018-12-08T12:05:39.298Z,7.50
2018-12-08T12:08:42.494Z,7.60
2018-12-08T12:11:45.710Z,7.70
2018-12-08T12:14:49.532Z,7.70
2018-12-08T12:17:52.797Z,7.80
2018-12-08T12:20:55.996Z,7.80
2018-12-08T12:23:59.186Z,7.80
2018-12-08T12:27:02.387Z,7.90
2018-12-08T12:30:07.305Z,7.90
2018-12-08T12:33:10.518Z,8.00
2018-12-08T12:36:13.711Z,8.00
2018-12-08T12:39:16.903Z,8.10
2018-12-08T12:42:22.146Z,8.10
2018-12-08T12:45:25.545Z,8.00
2018-12-08T12:48:28.776Z,8.10
2018-12-08T12:51:31.940Z,8.10
2018-12-08T12:54:35.130Z,8.10
2018-12-08T12:57:38.330Z,8.10
2018-12-08T13:00:41.504Z,8.10
2018-12-08T13:03:44.722Z,8.10
2018-12-08T13:06:47.915Z,8.10
2018-12-08T13:09:51.106Z,8.10
2018-12-08T13:12:54.887Z,8.10
2018-12-08T13:15:58.009Z,8.10
2018-12-08T13:19:01.210Z,8.10
2018-12-08T13:22:04.401Z,8.20
2018-12-08T13:25:22.858Z,8.10
2018-12-08T13:28:26.197Z,8.10
2018-12-08T13:31:29.346Z,8.10
2018-12-08T13:34:32.434Z,8.10
2018-12-08T13:37:35.634Z,8.10
2018-12-08T13:40:38.970Z,8.10
2018-12-08T13:43:49.190Z,8.10
2018-12-08T13:46:52.509Z,8.10
2018-12-08T13:49:55.787Z,8.10
2018-12-08T13:52:59.230Z,8.10
2018-12-08T13:56:02.193Z,8.10
2018-12-08T13:59:05.225Z,8.20
2018-12-08T14:02:08.586Z,8.20
2018-12-08T14:05:13.051Z,8.20
2018-12-08T14:08:16.026Z,8.20
2018-12-08T14:11:19.006Z,8.30
2018-12-08T14:14:22.029Z,8.20
2018-12-08T14:17:24.998Z,8.20
2018-12-08T14:20:31.117Z,8.20
2018-12-08T14:23:34.458Z,8.20
2018-12-08T14:26:37.610Z,8.10
2018-12-08T14:29:41.054Z,8.00
2018-12-08T14:32:44.421Z,7.90
2018-12-08T14:35:47.963Z,7.80
2018-12-08T14:38:57.456Z,7.80
2018-12-08T14:41:57.210Z,7.70
2018-12-08T14:45:00.590Z,7.70
2018-12-08T14:48:04.015Z,7.60
2018-12-08T14:53:16.433Z,7.40
2018-12-08T14:56:19.586Z,7.20
2018-12-08T14:59:23.030Z,6.80
2018-12-08T15:02:26.285Z,6.70
2018-12-08T15:05:29.829Z,6.60
2018-12-08T15:08:32.991Z,6.50
2018-12-08T15:11:36.530Z,6.30
2018-12-08T15:14:39.782Z,6.30
2018-12-08T15:17:43.022Z,6.30
2018-12-08T15:20:46.290Z,6.30
2018-12-08T15:23:49.861Z,6.30
2018-12-08T15:26:53.087Z,6.30
2018-12-08T15:29:56.318Z,6.30
2018-12-08T15:32:59.674Z,6.40
2018-12-08T15:36:02.909Z,6.30
2018-12-08T15:39:06.977Z,6.30
2018-12-08T15:42:11.234Z,6.30
2018-12-08T15:45:14.395Z,6.30
2018-12-08T15:48:17.622Z,6.30
2018-12-08T15:51:20.782Z,6.40
2018-12-08T15:54:24.081Z,6.40
2018-12-08T15:57:27.382Z,6.40
2018-12-08T16:00:30.785Z,6.30
2018-12-08T16:03:34.125Z,6.30
2018-12-08T16:06:37.269Z,6.30
2018-12-08T16:09:40.469Z,6.30
2018-12-08T16:12:44.777Z,6.30
2018-12-08T16:15:47.987Z,6.30
2018-12-08T16:18:52.799Z,6.30
2018-12-08T16:21:56.217Z,6.40
2018-12-08T16:24:59.423Z,6.40
2018-12-08T16:28:02.610Z,6.30
2018-12-08T16:31:05.808Z,6.40
2018-12-08T16:34:09.208Z,6.40
2018-12-08T16:37:12.399Z,6.40
2018-12-08T16:40:16.362Z,6.40
2018-12-08T16:43:19.613Z,6.40
2018-12-08T16:46:22.918Z,6.40
2018-12-08T16:49:26.105Z,6.50
2018-12-08T16:52:29.294Z,6.40
2018-12-08T16:55:32.495Z,6.50
2018-12-08T16:58:35.682Z,6.40
2018-12-08T17:01:40.829Z,6.50
2018-12-08T17:04:44.227Z,6.50
2018-12-08T17:07:47.422Z,6.50
2018-12-08T17:10:50.850Z,6.50
2018-12-08T17:13:54.021Z,6.60
2018-12-08T17:16:57.211Z,6.70
2018-12-08T17:20:00.416Z,6.70
2018-12-08T17:23:03.706Z,6.70
2018-12-08T17:26:09.757Z,6.70
2018-12-08T17:29:13.586Z,6.70
2018-12-08T17:32:16.773Z,6.70
2018-12-08T17:35:20.087Z,6.80
2018-12-08T17:38:23.265Z,6.80
2018-12-08T17:41:26.562Z,6.80
2018-12-08T17:44:29.802Z,6.90
2018-12-08T17:47:33.054Z,7.00
2018-12-08T17:50:36.558Z,7.00
2018-12-08T17:53:40.377Z,7.00
2018-12-08T17:56:43.558Z,7.10
2018-12-08T17:59:46.754Z,7.10
2018-12-08T18:02:49.977Z,7.10
2018-12-08T18:05:54.274Z,7.10
2018-12-08T18:08:57.470Z,7.10
2018-12-08T18:12:00.666Z,7.20
2018-12-08T18:15:04.472Z,7.30
2018-12-08T18:18:07.646Z,7.30
2018-12-08T18:21:10.955Z,7.50
2018-12-08T18:24:14.158Z,7.50
2018-12-08T18:27:17.358Z,7.60
2018-12-08T18:30:20.555Z,7.60
2018-12-08T18:33:23.746Z,7.60
2018-12-08T18:36:27.728Z,7.60
2018-12-08T18:39:30.865Z,7.70
2018-12-08T18:42:34.158Z,7.70
2018-12-08T18:45:38.373Z,7.70
2018-12-08T18:48:41.561Z,7.70
2018-12-08T18:51:44.758Z,7.80
2018-12-08T18:54:48.207Z,7.80
2018-12-08T18:57:51.354Z,7.80
2018-12-08T19:00:54.619Z,7.80
2018-12-08T19:03:57.744Z,7.90
2018-12-08T19:07:01.086Z,8.00
2018-12-08T19:10:04.490Z,7.90
2018-12-08T19:13:07.749Z,7.90
2018-12-08T19:16:10.938Z,8.00
2018-12-08T19:19:14.211Z,7.90
2018-12-08T19:22:17.458Z,8.00
2018-12-08T19:25:20.767Z,8.10
2018-12-08T19:28:23.923Z,8.00
2018-12-08T19:31:27.150Z,8.10
2018-12-08T19:34:30.311Z,8.10
2018-12-08T19:37:33.652Z,8.00
2018-12-08T19:40:37.097Z,8.10
2018-12-08T19:43:40.344Z,8.10
2018-12-08T19:46:44.527Z,8.20
2018-12-08T19:49:47.869Z,8.10
2018-12-08T19:52:51.218Z,8.10
2018-12-08T19:55:55.677Z,8.10
2018-12-08T19:59:01.809Z,8.10
2018-12-08T20:02:05.310Z,8.10
2018-12-08T20:05:08.658Z,8.00
2018-12-08T20:08:12.194Z,7.90
2018-12-08T20:11:15.400Z,7.80
2018-12-08T20:14:18.838Z,7.70
2018-12-08T20:17:22.107Z,7.60
2018-12-08T20:20:25.454Z,7.50
2018-12-08T20:23:28.599Z,7.50
2018-12-08T20:26:31.794Z,7.50
2018-12-08T20:29:35.330Z,7.50
2018-12-08T20:32:38.494Z,7.50
2018-12-08T20:35:41.753Z,7.50
2018-12-08T20:38:45.188Z,7.50
2018-12-08T20:41:48.410Z,7.40
2018-12-08T20:44:51.787Z,7.40
2018-12-08T20:47:54.882Z,7.40
2018-12-08T20:50:58.018Z,7.30
2018-12-08T20:54:01.347Z,7.30
2018-12-08T20:57:04.505Z,7.30
2018-12-08T21:00:07.829Z,7.20
2018-12-08T21:03:12.632Z,7.30
2018-12-08T21:06:15.926Z,7.20
2018-12-08T21:09:19.130Z,7.10
2018-12-08T21:12:22.402Z,7.10
2018-12-08T21:15:25.622Z,7.10
2018-12-08T21:18:28.950Z,7.10
2018-12-08T21:21:32.118Z,7.00
2018-12-08T21:24:35.644Z,7.10
2018-12-08T21:27:38.795Z,7.00
2018-12-08T21:30:42.065Z,7.00
2018-12-08T21:33:45.319Z,7.00
2018-12-08T21:36:48.534Z,7.00
2018-12-08T21:39:51.797Z,7.00
2018-12-08T21:42:55.026Z,7.00
2018-12-08T21:45:58.185Z,7.00
2018-12-08T21:49:01.533Z,7.00
2018-12-08T21:52:04.682Z,7.00
2018-12-08T21:55:08.113Z,7.00
2018-12-08T21:58:11.274Z,7.10
2018-12-08T22:01:15.222Z,7.00
2018-12-08T22:04:18.490Z,7.10
2018-12-08T22:07:23.415Z,7.00
2018-12-08T22:10:26.619Z,7.10
2018-12-08T22:13:29.878Z,7.00
2018-12-08T22:16:33.006Z,6.90
2018-12-08T22:19:36.389Z,6.90
2018-12-08T22:22:39.702Z,6.80
2018-12-08T22:25:42.934Z,6.80
2018-12-08T22:28:46.094Z,6.70
2018-12-08T22:31:49.293Z,6.70
2018-12-08T22:34:52.490Z,6.70
2018-12-08T22:37:55.682Z,6.60
2018-12-08T22:40:58.873Z,6.50
2018-12-08T22:44:02.054Z,6.60
2018-12-08T22:47:06.230Z,6.60
2018-12-08T22:50:09.378Z,6.60
2018-12-08T22:53:12.714Z,6.60
2018-12-08T22:56:15.869Z,6.50
2018-12-08T22:59:19.106Z,6.50
2018-12-08T23:02:22.365Z,6.50
2018-12-08T23:05:26.724Z,6.50
2018-12-08T23:08:29.878Z,6.60
2018-12-08T23:11:33.177Z,6.60
2018-12-08T23:14:36.373Z,6.70
2018-12-08T23:17:39.573Z,6.70
2018-12-08T23:20:42.866Z,6.80
2018-12-08T23:23:46.064Z,6.80
2018-12-08T23:26:49.253Z,6.80
2018-12-08T23:29:52.454Z,6.80
2018-12-08T23:32:55.646Z,6.90
2018-12-08T23:35:58.946Z,7.00
2018-12-08T23:39:02.465Z,7.10
2018-12-08T23:42:05.746Z,7.00
2018-12-08T23:45:08.938Z,7.00
2018-12-08T23:48:12.133Z,6.90
2018-12-08T23:51:15.333Z,7.00
2018-12-08T23:54:18.522Z,6.80
2018-12-08T23:57:21.821Z,6.80
